Time;durP1;ratioP1;P1;durP2;ratioP2;P2;SDS_P1;SDS_P2;PMS_P1;PMS_P2;Temp;Humidity;BMP_temperature;BMP_pressure;BME280_temperature;BME280_humidity;BME280_pressure;Samples;Min_cycle;Max_cycle;Signal;HPM_P1;HPM_P2
2022/08/01 00:00:41;;;;;;;16.55;7.28;;;17.70;99.90;;;;;;3060066;19;20025;-67
2022/08/01 00:01:45;;;;;;;16.23;7.35;;;17.90;99.90;;;;;;3058915;19;20066;-66
2022/08/01 00:02:46;;;;;;;14.35;6.80;;;17.70;99.90;;;;;;3058575;19;20026;-66
2022/08/01 00:03:50;;;;;;;15.35;7.10;;;17.60;99.90;;;;;;3058371;19;20115;-67
2022/08/01 00:04:53;;;;;;;15.35;7.25;;;17.60;99.90;;;;;;3058482;19;20005;-66
2022/08/01 00:05:57;;;;;;;11.98;6.70;;;17.80;99.90;;;;;;3059098;19;20014;-67
2022/08/01 00:06:59;;;;;;;15.45;7.25;;;17.80;99.90;;;;;;3058290;19;20361;-66
2022/08/01 00:08:03;;;;;;;16.88;7.55;;;17.70;99.90;;;;;;3058740;19;20026;-67
2022/08/01 00:09:04;;;;;;;17.13;7.40;;;17.70;99.90;;;;;;3059903;19;20452;-67
2022/08/01 00:10:10;;;;;;;13.95;6.50;;;17.60;99.90;;;;;;3057682;19;20541;-66
2022/08/01 00:11:12;;;;;;;11.00;6.25;;;17.80;99.90;;;;;;3058293;19;20086;-66
2022/08/01 00:12:16;;;;;;;10.30;6.22;;;17.80;99.90;;;;;;3058362;19;20039;-66
2022/08/01 00:13:20;;;;;;;15.93;6.63;;;17.80;99.90;;;;;;3058575;19;20018;-66
2022/08/01 00:14:24;;;;;;;11.90;6.57;;;17.70;99.90;;;;;;3058556;19;20007;-67
2022/08/01 00:15:25;;;;;;;11.68;6.70;;;17.70;99.90;;;;;;3058402;19;20556;-66
2022/08/01 00:16:29;;;;;;;12.23;6.38;;;17.70;99.90;;;;;;3058060;19;20407;-67
2022/08/01 00:17:31;;;;;;;12.77;5.95;;;17.80;99.90;;;;;;3058075;19;20381;-67
2022/08/01 00:18:35;;;;;;;15.45;5.93;;;17.60;99.90;;;;;;3058610;19;20476;-67
2022/08/01 00:19:39;;;;;;;12.10;4.93;;;17.70;99.90;;;;;;3059585;19;20026;-67
2022/08/01 00:20:40;;;;;;;14.23;5.88;;;17.70;99.90;;;;;;3059274;19;20022;-67
2022/08/01 00:21:44;;;;;;;14.25;5.80;;;17.70;99.90;;;;;;3057933;19;20014;-67
2022/08/01 00:22:46;;;;;;;9.77;5.82;;;17.70;99.90;;;;;;3058077;19;20027;-67
2022/08/01 00:23:50;;;;;;;9.65;5.03;;;17.60;99.90;;;;;;3058231;19;20002;-67
2022/08/01 00:24:52;;;;;;;14.73;6.07;;;17.60;99.90;;;;;;3059255;19;20014;-66
2022/08/01 00:25:56;;;;;;;11.95;5.30;;;17.50;99.90;;;;;;3056138;19;21658;-67
2022/08/01 00:26:57;;;;;;;11.15;5.32;;;17.80;99.90;;;;;;3058516;19;20479;-67
2022/08/01 00:28:01;;;;;;;10.30;5.63;;;17.70;99.90;;;;;;3058945;19;20027;-67
2022/08/01 00:29:05;;;;;;;11.07;5.30;;;17.60;99.90;;;;;;3059052;19;20018;-67
2022/08/01 00:30:10;;;;;;;9.73;4.90;;;17.70;99.90;;;;;;3058130;19;20015;-67
2022/08/01 00:31:11;;;;;;;8.80;4.78;;;17.70;99.90;;;;;;3058460;19;20030;-67
2022/08/01 00:32:15;;;;;;;13.75;5.68;;;17.60;99.90;;;;;;3058245;19;20011;-66
2022/08/01 00:33:16;;;;;;;12.88;5.35;;;17.50;99.90;;;;;;3058327;19;20007;-66
2022/08/01 00:34:20;;;;;;;9.05;4.75;;;17.70;99.90;;;;;;3059011;19;20030;-67
2022/08/01 00:35:22;;;;;;;9.43;5.28;;;17.80;99.90;;;;;;3058745;19;20011;-66
2022/08/01 00:36:26;;;;;;;8.40;5.07;;;17.50;99.90;;;;;;3059296;19;20023;-66
2022/08/01 00:37:27;;;;;;;10.10;5.05;;;17.70;99.90;;;;;;3058277;19;20031;-66
2022/08/01 00:38:31;;;;;;;11.52;5.47;;;17.60;99.90;;;;;;3057566;19;20010;-66
2022/08/01 00:39:32;;;;;;;8.32;4.80;;;17.80;99.90;;;;;;3057443;19;20030;-67
2022/08/01 00:40:36;;;;;;;10.40;4.93;;;17.70;99.90;;;;;;3056677;19;20085;-66
2022/08/01 00:41:40;;;;;;;10.00;4.38;;;17.60;99.90;;;;;;3057162;19;20011;-66
2022/08/01 00:42:41;;;;;;;11.07;4.43;;;17.60;99.90;;;;;;3057765;19;20031;-66
2022/08/01 00:43:45;;;;;;;9.05;4.65;;;17.50;99.90;;;;;;3057562;19;20010;-66
2022/08/01 00:44:49;;;;;;;7.78;4.55;;;17.70;99.90;;;;;;3058425;19;20041;-66
2022/08/01 00:45:53;;;;;;;9.15;3.92;;;17.60;99.90;;;;;;3058652;19;20037;-67
2022/08/01 00:46:54;;;;;;;8.68;3.75;;;17.60;99.90;;;;;;3058452;19;20395;-66
2022/08/01 00:47:58;;;;;;;5.68;3.97;;;19.30;99.90;;;;;;3058332;19;20017;-67
2022/08/01 00:49:03;;;;;;;8.70;3.63;;;17.70;99.90;;;;;;3057848;19;20011;-67
2022/08/01 00:50:05;;;;;;;9.32;4.10;;;17.60;99.90;;;;;;3057763;19;20333;-67
2022/08/01 00:51:09;;;;;;;6.82;3.83;;;17.60;99.90;;;;;;3057528;19;20021;-66
2022/08/01 00:52:11;;;;;;;7.10;3.85;;;17.60;99.90;;;;;;3057898;19;20002;-66
2022/08/01 00:53:15;;;;;;;7.97;4.43;;;17.60;99.90;;;;;;3057585;19;20015;-66
2022/08/01 00:54:16;;;;;;;9.60;4.45;;;17.60;99.90;;;;;;3058073;19;20499;-66
2022/08/01 00:55:21;;;;;;;6.90;4.40;;;17.70;99.90;;;;;;3057250;19;20019;-67
2022/08/01 00:56:26;;;;;;;7.03;4.43;;;17.60;99.90;;;;;;3057394;19;20065;-67
2022/08/01 00:57:31;;;;;;;10.02;4.63;;;17.50;99.90;;;;;;3059160;19;20350;-66
2022/08/01 00:58:33;;;;;;;6.97;3.83;;;17.50;99.90;;;;;;3058001;19;20002;-67
2022/08/01 00:59:37;;;;;;;8.35;4.40;;;17.40;99.90;;;;;;3057332;19;20499;-67
2022/08/01 01:00:41;;;;;;;10.20;4.20;;;17.50;99.90;;;;;;3057832;19;20010;-67
2022/08/01 01:01:45;;;;;;;7.68;3.95;;;17.50;99.90;;;;;;3056387;19;20046;-67
2022/08/01 01:02:46;;;;;;;9.02;4.03;;;17.60;99.90;;;;;;3058072;19;20015;-66
2022/08/01 01:03:51;;;;;;;6.28;3.95;;;17.60;99.90;;;;;;3058532;19;20043;-67
2022/08/01 01:04:52;;;;;;;6.03;3.58;;;17.50;99.90;;;;;;3057594;19;20318;-67
2022/08/01 01:06:06;;;;;;;7.45;3.20;;;17.50;99.90;;;;;;3057579;19;20015;-67
2022/08/01 01:07:19;;;;;;;5.57;3.38;;;17.60;99.90;;;;;;3057770;19;20368;-67
2022/08/01 01:08:25;;;;;;;;;;;17.60;99.90;;;;;;3058215;19;20014;-67
2022/08/01 01:09:39;;;;;;;4.03;2.92;;;17.60;99.90;;;;;;3057779;19;19974;-67
2022/08/01 01:10:48;;;;;;;7.22;2.80;;;17.50;99.90;;;;;;3057443;19;20018;-66
2022/08/01 01:11:58;;;;;;;6.03;3.00;;;17.40;99.90;;;;;;3057038;19;20011;-66
2022/08/01 01:13:10;;;;;;;4.57;2.80;;;17.50;99.90;;;;;;3057669;19;20032;-67
2022/08/01 01:14:26;;;;;;;4.18;2.58;;;17.50;99.90;;;;;;3057184;19;20017;-66
2022/08/01 01:15:36;;;;;;;9.88;3.10;;;17.50;99.90;;;;;;3057969;19;20010;-66
2022/08/01 01:16:42;;;;;;;7.78;3.15;;;17.30;99.90;;;;;;3057299;19;20009;-66
2022/08/01 01:17:54;;;;;;;5.30;3.15;;;17.40;99.90;;;;;;3057437;19;20010;-67
2022/08/01 01:19:00;;;;;;;7.07;2.83;;;17.60;99.90;;;;;;3057200;19;20031;-67
2022/08/01 01:20:05;;;;;;;6.18;3.13;;;17.50;99.90;;;;;;3057036;19;20014;-66
2022/08/01 01:21:20;;;;;;;3.63;2.88;;;17.40;99.90;;;;;;3057612;19;20011;-66
2022/08/01 01:22:37;;;;;;;5.80;3.25;;;17.40;99.90;;;;;;3057399;19;20802;-67
2022/08/01 01:23:53;;;;;;;8.02;3.42;;;17.50;99.90;;;;;;3057467;19;20018;-66
2022/08/01 01:25:09;;;;;;;5.50;3.17;;;17.50;99.90;;;;;;3056669;19;20031;-67
2022/08/01 01:26:31;;;;;;;6.50;3.40;;;17.50;99.90;;;;;;3057531;19;20107;-66
2022/08/01 01:27:42;;;;;;;10.50;3.67;;;17.50;99.90;;;;;;3057530;19;20023;-67
2022/08/01 01:29:04;;;;;;;7.97;3.60;;;17.60;99.90;;;;;;3058385;19;20023;-67
2022/08/01 01:30:06;;;;;;;10.63;3.30;;;17.50;99.90;;;;;;3057532;19;20013;-67
2022/08/01 01:31:14;;;;;;;4.85;3.25;;;17.60;99.90;;;;;;3057048;19;20018;-67
2022/08/01 01:32:19;;;;;;;6.15;3.05;;;17.50;99.90;;;;;;3056273;19;20526;-66
2022/08/01 01:33:28;;;;;;;6.32;2.97;;;17.50;99.90;;;;;;3056441;19;20100;-67
2022/08/01 01:34:32;;;;;;;4.32;3.00;;;17.60;99.90;;;;;;3057696;19;20018;-67
2022/08/01 01:35:38;;;;;;;8.18;2.90;;;17.40;99.90;;;;;;3057610;19;20003;-66
2022/08/01 01:36:41;;;;;;;7.43;3.42;;;17.50;99.90;;;;;;3058829;19;20467;-66
2022/08/01 01:37:46;;;;;;;6.60;3.22;;;17.40;99.90;;;;;;3060533;19;20010;-66
2022/08/01 01:38:49;;;;;;;4.97;2.92;;;17.60;99.90;;;;;;3059923;19;20014;-66
2022/08/01 01:39:55;;;;;;;5.30;3.30;;;17.60;99.90;;;;;;3060652;19;20013;-66
2022/08/01 01:40:57;;;;;;;7.82;3.25;;;17.50;99.90;;;;;;3060435;19;20082;-67
2022/08/01 01:42:02;;;;;;;6.05;3.10;;;17.50;99.90;;;;;;3060576;19;20007;-67
2022/08/01 01:43:04;;;;;;;6.90;3.30;;;17.60;99.90;;;;;;3060345;19;20491;-67
2022/08/01 01:44:13;;;;;;;6.90;3.30;;;17.70;99.90;;;;;;3060073;19;20031;-67
2022/08/01 01:45:15;;;;;;;4.88;3.28;;;17.70;99.90;;;;;;3059993;19;20025;-66
2022/08/01 01:46:23;;;;;;;6.50;3.30;;;17.50;99.90;;;;;;3060638;19;19998;-66
2022/08/01 01:47:26;;;;;;;5.47;3.47;;;17.70;99.90;;;;;;3060285;19;20018;-66
2022/08/01 01:48:32;;;;;;;7.85;3.55;;;17.60;99.90;;;;;;3060651;19;20006;-66
2022/08/01 01:49:34;;;;;;;8.85;3.45;;;17.60;99.90;;;;;;3059940;19;20518;-66
2022/08/01 01:50:41;;;;;;;6.15;3.70;;;17.50;99.90;;;;;;3060508;19;20018;-66
2022/08/01 01:51:43;;;;;;;7.93;3.53;;;17.50;99.90;;;;;;3060653;19;20014;-66
2022/08/01 01:52:49;;;;;;;4.47;3.30;;;17.40;99.90;;;;;;3060442;19;20014;-67
2022/08/01 01:53:52;;;;;;;7.30;3.35;;;17.60;99.90;;;;;;3059657;19;20503;-66
2022/08/01 01:54:58;;;;;;;5.97;3.58;;;17.60;99.90;;;;;;3061794;19;20480;-66
2022/08/01 01:56:02;;;;;;;7.35;3.55;;;17.50;99.90;;;;;;3059905;19;20018;-66
2022/08/01 01:57:09;;;;;;;7.05;3.65;;;17.80;99.90;;;;;;3060246;19;20015;-66
2022/08/01 01:58:13;;;;;;;7.32;3.63;;;17.60;99.90;;;;;;3060177;19;20352;-67
2022/08/01 01:59:22;;;;;;;5.53;3.30;;;17.70;99.90;;;;;;3060619;19;20014;-66
2022/08/01 02:00:24;;;;;;;6.53;3.50;;;17.60;99.90;;;;;;3060283;19;20384;-66
2022/08/01 02:01:31;;;;;;;7.13;3.47;;;17.40;99.90;;;;;;3061645;19;20375;-67
2022/08/01 02:02:34;;;;;;;9.30;3.60;;;17.50;99.90;;;;;;3060277;19;20006;-66
2022/08/01 02:03:41;;;;;;;7.25;3.15;;;17.50;99.90;;;;;;3059910;19;20010;-66
2022/08/01 02:04:46;;;;;;;7.53;3.30;;;17.80;99.90;;;;;;3059305;19;20345;-66
2022/08/01 02:05:49;;;;;;;7.30;3.13;;;17.70;99.90;;;;;;3059787;19;20021;-66
2022/08/01 02:06:55;;;;;;;8.18;3.22;;;17.70;99.90;;;;;;3060413;19;20018;-66
2022/08/01 02:07:57;;;;;;;6.22;3.00;;;17.60;99.90;;;;;;3059901;19;20374;-66
2022/08/01 02:09:03;;;;;;;5.93;3.13;;;17.60;99.90;;;;;;3060378;19;20026;-66
2022/08/01 02:10:06;;;;;;;6.47;3.50;;;17.50;99.90;;;;;;3060271;19;20018;-66
2022/08/01 02:11:22;;;;;;;8.10;3.28;;;17.60;99.90;;;;;;3059520;19;20010;-66
2022/08/01 02:12:24;;;;;;;6.20;3.00;;;17.60;99.90;;;;;;3059916;19;20010;-66
2022/08/01 02:13:28;;;;;;;5.93;3.13;;;17.70;99.90;;;;;;3060076;19;19999;-66
2022/08/01 02:14:34;;;;;;;6.32;3.22;;;17.60;99.90;;;;;;3061522;19;20010;-66
2022/08/01 02:15:40;;;;;;;9.90;3.05;;;17.60;99.90;;;;;;3060190;19;20044;-67
2022/08/01 02:16:45;;;;;;;5.20;2.92;;;17.50;99.90;;;;;;3061144;19;20022;-66
2022/08/01 02:17:52;;;;;;;7.18;3.33;;;17.20;99.90;;;;;;3060097;19;19998;-66
2022/08/01 02:18:53;;;;;;;10.25;3.38;;;17.60;99.90;;;;;;3059012;19;20018;-66
2022/08/01 02:19:57;;;;;;;;;;;17.60;99.90;;;;;;3060499;19;20517;-66
2022/08/01 02:21:00;;;;;;;5.63;3.08;;;17.50;99.90;;;;;;3059683;19;19914;-67
2022/08/01 02:22:10;;;;;;;9.40;3.15;;;17.50;99.90;;;;;;3060177;19;20015;-66
2022/08/01 02:23:13;;;;;;;6.30;3.20;;;17.50;99.90;;;;;;3059852;19;20479;-66
2022/08/01 02:24:34;;;;;;;7.60;3.40;;;17.60;99.90;;;;;;3060671;19;20018;-66
2022/08/01 02:25:41;;;;;;;7.43;2.90;;;17.50;99.90;;;;;;3058976;19;20027;-67
2022/08/01 02:26:50;;;;;;;8.35;3.13;;;17.50;99.90;;;;;;3060003;19;20025;-66
2022/08/01 02:28:00;;;;;;;6.93;3.00;;;17.50;99.90;;;;;;3059893;19;20023;-66
2022/08/01 02:29:12;;;;;;;10.20;3.10;;;17.50;99.90;;;;;;3059712;19;20362;-66
2022/08/01 02:30:17;;;;;;;9.75;2.92;;;17.60;99.90;;;;;;3059079;19;20014;-67
2022/08/01 02:31:24;;;;;;;9.63;2.90;;;16.60;99.90;;;;;;3058887;19;20014;-66
2022/08/01 02:32:30;;;;;;;4.82;2.58;;;17.50;99.90;;;;;;3060008;19;20014;-66
2022/08/01 02:33:40;;;;;;;8.68;2.53;;;17.40;99.90;;;;;;3059665;19;20014;-66
2022/08/01 02:34:44;;;;;;;8.82;2.50;;;17.40;99.90;;;;;;3061002;19;20015;-66
2022/08/01 02:35:52;;;;;;;8.13;2.60;;;17.50;99.90;;;;;;3059507;19;20010;-66
2022/08/01 02:36:56;;;;;;;8.45;2.58;;;17.40;99.90;;;;;;3061109;19;20058;-66
2022/08/01 02:38:02;;;;;;;7.75;2.40;;;17.40;99.90;;;;;;3060701;19;20058;-66
2022/08/01 02:39:08;;;;;;;7.03;2.88;;;17.40;99.90;;;;;;3058674;19;20527;-66
2022/08/01 02:40:15;;;;;;;10.93;3.10;;;17.30;99.90;;;;;;3059652;19;20009;-66
2022/08/01 02:41:20;;;;;;;9.15;2.10;;;17.30;99.90;;;;;;3059443;19;20010;-66
2022/08/01 02:42:27;;;;;;;7.72;2.35;;;17.40;99.90;;;;;;3059459;19;20013;-67
2022/08/01 02:43:32;;;;;;;8.27;2.30;;;17.30;99.90;;;;;;3059408;19;20081;-66
2022/08/01 02:44:40;;;;;;;7.88;2.22;;;17.40;99.90;;;;;;3059922;19;20162;-66
2022/08/01 02:45:48;;;;;;;10.00;2.17;;;17.40;99.90;;;;;;3060738;19;20019;-66
2022/08/01 02:46:55;;;;;;;7.78;2.33;;;17.30;99.90;;;;;;3060775;19;20362;-66
2022/08/01 02:48:04;;;;;;;5.63;1.98;;;17.20;99.90;;;;;;3059167;19;20027;-67
2022/08/01 02:49:11;;;;;;;8.75;2.47;;;17.30;99.90;;;;;;3058963;19;20014;-66
2022/08/01 02:50:14;;;;;;;4.70;1.95;;;17.30;99.90;;;;;;3059084;19;20475;-67
2022/08/01 02:51:21;;;;;;;7.68;2.20;;;17.30;99.90;;;;;;3060641;19;20039;-66
2022/08/01 02:52:27;;;;;;;9.68;2.40;;;17.10;99.90;;;;;;3059807;19;20011;-66
2022/08/01 02:53:38;;;;;;;7.40;2.20;;;17.30;99.90;;;;;;3059386;19;20071;-66
2022/08/01 02:54:44;;;;;;;8.48;2.08;;;17.20;99.90;;;;;;3059164;19;20031;-66
2022/08/01 02:55:47;;;;;;;5.43;2.15;;;17.10;99.90;;;;;;3058945;19;20006;-67
2022/08/01 02:56:53;;;;;;;8.02;2.40;;;17.20;99.90;;;;;;3060205;19;20035;-66
2022/08/01 02:57:55;;;;;;;7.70;1.90;;;17.10;99.90;;;;;;3059281;19;20010;-66
2022/08/01 02:58:59;;;;;;;6.47;2.15;;;17.20;99.90;;;;;;3059339;19;20042;-67
2022/08/01 03:00:01;;;;;;;6.00;2.15;;;17.20;99.90;;;;;;3060386;19;20034;-66
2022/08/01 03:01:08;;;;;;;7.47;2.10;;;17.10;99.90;;;;;;3060382;19;20036;-66
2022/08/01 03:02:11;;;;;;;4.97;1.92;;;17.10;99.90;;;;;;3058988;19;20440;-66
2022/08/01 03:03:19;;;;;;;7.20;2.35;;;17.10;99.90;;;;;;3059196;19;20018;-66
2022/08/01 03:04:21;;;;;;;6.10;2.10;;;17.20;99.90;;;;;;3058709;19;20034;-66
2022/08/01 03:05:27;;;;;;;5.68;2.03;;;17.10;99.90;;;;;;3059511;19;20014;-66
2022/08/01 03:06:29;;;;;;;8.10;2.33;;;17.20;99.90;;;;;;3059739;19;20011;-68
2022/08/01 03:07:34;;;;;;;5.95;1.70;;;17.10;99.90;;;;;;3059256;19;20017;-66
2022/08/01 03:08:37;;;;;;;11.43;2.50;;;17.10;99.90;;;;;;3059724;19;20014;-66
2022/08/01 03:09:44;;;;;;;6.75;2.25;;;16.90;99.90;;;;;;3059260;19;20005;-66
2022/08/01 03:10:46;;;;;;;6.10;1.90;;;17.20;99.90;;;;;;3059378;19;20015;-66
2022/08/01 03:11:52;;;;;;;5.78;2.08;;;17.10;99.90;;;;;;3059071;19;20531;-66
2022/08/01 03:12:54;;;;;;;6.35;2.00;;;17.10;99.90;;;;;;3058782;19;20095;-66
2022/08/01 03:14:01;;;;;;;7.43;2.35;;;17.10;99.90;;;;;;3059278;19;20013;-66
2022/08/01 03:15:05;;;;;;;6.53;1.98;;;17.00;99.90;;;;;;3059100;19;20066;-66
2022/08/01 03:16:12;;;;;;;7.70;2.20;;;17.10;99.90;;;;;;3058955;19;20479;-66
2022/08/01 03:17:16;;;;;;;6.10;2.10;;;17.00;99.90;;;;;;3059806;19;20022;-66
2022/08/01 03:18:21;;;;;;;9.13;2.30;;;17.00;99.90;;;;;;3060377;19;20084;-66
2022/08/01 03:19:25;;;;;;;10.45;2.72;;;17.10;99.90;;;;;;3058723;19;20108;-66
2022/08/01 03:20:32;;;;;;;8.57;2.55;;;16.90;99.90;;;;;;3058962;19;20010;-67
2022/08/01 03:21:35;;;;;;;8.65;3.38;;;15.20;99.90;;;;;;3058958;19;20348;-66
2022/08/01 03:22:42;;;;;;;10.40;2.40;;;16.80;99.90;;;;;;3059050;19;20020;-66
2022/08/01 03:23:45;;;;;;;9.85;2.70;;;17.00;99.90;;;;;;3059422;19;20018;-66
2022/08/01 03:24:54;;;;;;;9.95;2.42;;;17.00;99.90;;;;;;3058364;19;20042;-66
2022/08/01 03:25:55;;;;;;;10.02;3.03;;;17.10;99.90;;;;;;3059006;19;20010;-67
2022/08/01 03:27:01;;;;;;;7.45;2.80;;;17.00;99.90;;;;;;3059233;19;20090;-66
2022/08/01 03:28:04;;;;;;;6.45;2.78;;;17.10;99.90;;;;;;3058915;19;19998;-66
2022/08/01 03:29:11;;;;;;;9.35;2.90;;;17.00;99.90;;;;;;3059354;19;20014;-66
2022/08/01 03:30:15;;;;;;;8.13;2.97;;;17.20;99.90;;;;;;3059139;19;20011;-66
2022/08/01 03:31:21;;;;;;;10.55;2.72;;;17.30;99.90;;;;;;3060256;19;20041;-66
2022/08/01 03:32:25;;;;;;;9.10;3.30;;;17.00;99.90;;;;;;3058826;19;20130;-66
2022/08/01 03:33:29;;;;;;;12.38;3.08;;;17.00;99.90;;;;;;3057721;19;20014;-66
2022/08/01 03:34:31;;;;;;;11.18;3.25;;;17.00;99.90;;;;;;3059114;19;20491;-66
2022/08/01 03:35:40;;;;;;;10.32;3.10;;;17.10;99.90;;;;;;3060131;19;20021;-66
2022/08/01 03:36:49;;;;;;;9.65;3.08;;;16.90;99.90;;;;;;3058851;19;20033;-66
2022/08/01 03:37:53;;;;;;;13.02;3.28;;;16.90;99.90;;;;;;3060615;19;20027;-66
2022/08/01 03:39:00;;;;;;;11.57;3.15;;;17.10;99.90;;;;;;3058502;19;20488;-67
2022/08/01 03:40:05;;;;;;;7.50;2.90;;;17.10;99.90;;;;;;3060155;19;20014;-66
2022/08/01 03:41:14;;;;;;;9.63;3.08;;;16.80;99.90;;;;;;3058960;19;20070;-66
2022/08/01 03:42:20;;;;;;;11.73;3.20;;;17.00;99.90;;;;;;3058505;19;20031;-67
2022/08/01 03:43:35;;;;;;;8.70;3.10;;;17.00;99.90;;;;;;3058658;19;20011;-66
2022/08/01 03:44:38;;;;;;;11.43;3.13;;;17.10;99.90;;;;;;3058620;19;20014;-66
2022/08/01 03:45:48;;;;;;;13.00;3.20;;;17.00;99.90;;;;;;3058528;19;20007;-66
2022/08/01 03:46:59;;;;;;;9.45;2.85;;;16.80;99.90;;;;;;3058668;19;20007;-67
2022/08/01 03:48:05;;;;;;;8.98;3.35;;;17.10;99.90;;;;;;3058626;19;20010;-66
2022/08/01 03:49:14;;;;;;;7.90;2.92;;;16.90;99.90;;;;;;3059022;19;20034;-66
2022/08/01 03:50:19;;;;;;;12.40;2.90;;;16.90;99.90;;;;;;3058167;19;20038;-66
2022/08/01 03:51:22;;;;;;;9.43;2.97;;;17.00;99.90;;;;;;3058908;19;20038;-66
2022/08/01 03:52:28;;;;;;;7.38;2.97;;;16.90;99.90;;;;;;3059504;19;20035;-66
2022/08/01 03:53:32;;;;;;;9.70;2.83;;;16.90;99.90;;;;;;3058543;19;20014;-66
2022/08/01 03:54:40;;;;;;;10.23;3.40;;;16.90;99.90;;;;;;3057784;19;20010;-66
2022/08/01 03:55:43;;;;;;;11.80;3.05;;;16.90;99.90;;;;;;3058375;19;20031;-66
2022/08/01 03:56:51;;;;;;;10.52;3.40;;;16.90;99.90;;;;;;3058111;19;20522;-66
2022/08/01 03:57:52;;;;;;;6.65;2.78;;;16.90;99.90;;;;;;3058628;19;20007;-66
2022/08/01 03:58:57;;;;;;;;;;;16.90;99.90;;;;;;3060021;19;20018;-66
2022/08/01 03:59:59;;;;;;;11.43;3.53;;;16.70;99.90;;;;;;3057394;19;19927;-66
2022/08/01 04:01:03;;;;;;;9.25;3.45;;;16.70;99.90;;;;;;3058389;19;20014;-66
2022/08/01 04:02:08;;;;;;;11.57;3.72;;;16.80;99.90;;;;;;3058491;19;20349;-66
2022/08/01 04:03:18;;;;;;;7.65;3.00;;;16.80;99.90;;;;;;3058315;19;20018;-66
2022/08/01 04:04:20;;;;;;;8.73;2.92;;;16.80;99.90;;;;;;3058639;19;19998;-67
2022/08/01 04:05:25;;;;;;;7.20;3.10;;;16.80;99.90;;;;;;3057693;19;19999;-66
2022/08/01 04:06:26;;;;;;;13.38;3.35;;;16.70;99.90;;;;;;3057643;19;20039;-66
2022/08/01 04:07:35;;;;;;;8.25;2.88;;;16.70;99.90;;;;;;3058866;19;20020;-66
2022/08/01 04:08:37;;;;;;;15.13;3.50;;;16.60;99.90;;;;;;3058112;19;20010;-66
2022/08/01 04:09:42;;;;;;;13.15;3.63;;;16.70;99.90;;;;;;3059972;19;20014;-66
2022/08/01 04:10:43;;;;;;;11.98;3.60;;;16.70;99.90;;;;;;3059422;19;20431;-66
2022/08/01 04:11:47;;;;;;;14.45;3.67;;;16.80;99.90;;;;;;3059455;19;20023;-66
2022/08/01 04:12:48;;;;;;;16.08;3.13;;;18.60;99.90;;;;;;3058322;19;20011;-66
2022/08/01 04:13:54;;;;;;;9.35;3.20;;;16.70;99.90;;;;;;3058897;19;20465;-68
2022/08/01 04:14:55;;;;;;;10.32;3.30;;;16.60;99.90;;;;;;3058101;19;19998;-66
2022/08/01 04:15:59;;;;;;;8.60;2.97;;;16.60;99.90;;;;;;3059866;19;20095;-66
2022/08/01 04:17:00;;;;;;;12.27;3.75;;;16.80;99.90;;;;;;3059675;19;20054;-66
2022/08/01 04:18:06;;;;;;;10.80;3.22;;;16.50;99.90;;;;;;3058109;19;19998;-66
2022/08/01 04:19:08;;;;;;;11.65;3.05;;;16.50;99.90;;;;;;3058407;19;20014;-66
2022/08/01 04:20:13;;;;;;;11.85;2.83;;;16.50;99.90;;;;;;3058086;19;20011;-66
2022/08/01 04:21:18;;;;;;;11.05;3.00;;;16.60;99.90;;;;;;3057711;19;20030;-66
2022/08/01 04:22:25;;;;;;;10.65;2.97;;;16.40;99.90;;;;;;3059319;19;20017;-66
2022/08/01 04:23:27;;;;;;;10.73;3.40;;;16.40;99.90;;;;;;3057697;19;20500;-66
2022/08/01 04:24:33;;;;;;;13.55;3.45;;;16.50;99.90;;;;;;3058247;19;20029;-66
2022/08/01 04:25:39;;;;;;;11.02;3.33;;;16.50;99.90;;;;;;3056991;19;20018;-66
2022/08/01 04:26:46;;;;;;;8.98;2.90;;;16.40;99.90;;;;;;3060043;19;20015;-66
2022/08/01 04:27:50;;;;;;;8.00;2.85;;;16.40;99.90;;;;;;3057771;19;20368;-66
2022/08/01 04:28:55;;;;;;;7.28;2.78;;;16.50;99.90;;;;;;3057403;19;20011;-67
2022/08/01 04:29:58;;;;;;;16.40;3.10;;;16.40;99.90;;;;;;3057705;19;20363;-66
2022/08/01 04:31:04;;;;;;;9.18;2.80;;;17.50;99.90;;;;;;3058262;19;20011;-66
2022/08/01 04:32:09;;;;;;;15.85;3.15;;;16.40;99.90;;;;;;3057707;19;20010;-66
2022/08/01 04:33:19;;;;;;;7.63;3.00;;;16.50;99.90;;;;;;3058059;19;20010;-66
2022/08/01 04:34:24;;;;;;;11.45;2.92;;;16.40;99.90;;;;;;3057596;19;20011;-66
2022/08/01 04:35:29;;;;;;;8.45;2.80;;;16.40;99.90;;;;;;3059125;19;20021;-66
2022/08/01 04:36:35;;;;;;;12.65;2.90;;;16.40;99.90;;;;;;3058161;19;20042;-68
2022/08/01 04:37:40;;;;;;;12.48;2.85;;;16.30;99.90;;;;;;3059651;19;20078;-67
2022/08/01 04:38:45;;;;;;;11.10;3.00;;;16.40;99.90;;;;;;3057956;19;20115;-66
2022/08/01 04:39:51;;;;;;;11.23;3.42;;;16.30;99.90;;;;;;3058099;19;20020;-66
2022/08/01 04:40:53;;;;;;;9.85;3.13;;;16.40;99.90;;;;;;3058161;19;20325;-66
2022/08/01 04:41:58;;;;;;;9.20;3.10;;;16.40;99.90;;;;;;3058050;19;20033;-66
2022/08/01 04:43:00;;;;;;;14.00;3.28;;;16.30;99.90;;;;;;3058420;19;20029;-66
2022/08/01 04:44:05;;;;;;;10.48;2.70;;;16.30;99.90;;;;;;3057471;19;20038;-66
2022/08/01 04:45:08;;;;;;;12.05;3.22;;;16.20;99.90;;;;;;3059590;19;20078;-66
2022/08/01 04:46:13;;;;;;;12.88;3.20;;;16.20;99.90;;;;;;3057868;19;20077;-67
2022/08/01 04:47:14;;;;;;;11.07;2.97;;;16.40;99.90;;;;;;3058021;19;20011;-67
2022/08/01 04:48:22;;;;;;;8.25;2.60;;;16.40;99.90;;;;;;3057876;19;20541;-66
2022/08/01 04:49:24;;;;;;;10.05;2.40;;;16.40;99.90;;;;;;3060022;19;20014;-66
2022/08/01 04:50:27;;;;;;;;;;;16.30;99.90;;;;;;3058768;19;20424;-66
2022/08/01 04:51:29;;;;;;;13.43;3.10;;;16.20;99.90;;;;;;3057634;19;20425;-66
2022/08/01 04:52:36;;;;;;;12.38;2.88;;;16.20;99.90;;;;;;3057644;19;20471;-66
2022/08/01 04:53:37;;;;;;;11.90;3.20;;;16.00;99.90;;;;;;3057966;19;20007;-66
2022/08/01 04:54:41;;;;;;;13.68;2.90;;;16.30;99.90;;;;;;3057389;19;20065;-66
2022/08/01 04:55:42;;;;;;;13.50;3.28;;;16.10;99.90;;;;;;3058084;19;20006;-66
2022/08/01 04:56:46;;;;;;;16.48;3.63;;;16.20;99.90;;;;;;3057665;19;20006;-66
2022/08/01 04:57:50;;;;;;;12.48;2.67;;;16.30;99.90;;;;;;3057876;19;20007;-66
2022/08/01 04:59:39;;;;;;;10.50;2.53;;;16.30;99.90;;;;;;3057337;19;20018;-66
2022/08/01 05:00:18;;;;;;;12.00;2.67;;;16.10;99.90;;;;;;3057640;19;20395;-66
2022/08/01 05:01:20;;;;;;;11.80;3.15;;;15.90;99.90;;;;;;3056788;19;20010;-66
2022/08/01 05:02:23;;;;;;;13.70;2.75;;;16.20;99.90;;;;;;3057868;19;20050;-66
2022/08/01 05:03:27;;;;;;;11.05;2.72;;;16.30;99.90;;;;;;3058263;19;20368;-66
2022/08/01 05:04:31;;;;;;;12.63;3.20;;;16.30;99.90;;;;;;3058008;19;20018;-67
2022/08/01 05:05:36;;;;;;;14.65;3.05;;;16.10;99.90;;;;;;3057204;19;20014;-66
2022/08/01 05:06:37;;;;;;;15.80;3.42;;;16.10;99.90;;;;;;3057224;19;20066;-66
2022/08/01 05:07:41;;;;;;;16.38;3.00;;;16.10;99.90;;;;;;3057939;19;20345;-66
2022/08/01 05:08:42;;;;;;;12.27;2.67;;;16.50;99.90;;;;;;3058394;19;20423;-66
2022/08/01 05:09:47;;;;;;;13.23;3.08;;;16.30;99.90;;;;;;3057402;19;20019;-66
2022/08/01 05:10:48;;;;;;;11.63;2.92;;;16.30;99.90;;;;;;3057729;19;19999;-66
2022/08/01 05:11:52;;;;;;;10.30;2.78;;;16.40;99.90;;;;;;3060399;19;20040;-66
2022/08/01 05:12:54;;;;;;;14.00;2.92;;;16.30;99.90;;;;;;3063564;19;20013;-66
2022/08/01 05:13:57;;;;;;;13.70;3.13;;;16.30;99.90;;;;;;3063313;19;20022;-67
2022/08/01 05:14:59;;;;;;;10.65;2.90;;;16.40;99.90;;;;;;3065059;19;20022;-66
2022/08/01 05:16:03;;;;;;;11.18;2.83;;;16.30;99.90;;;;;;3064094;19;20052;-66
2022/08/01 05:17:07;;;;;;;22.83;3.72;;;16.40;99.90;;;;;;3064168;19;20010;-66
2022/08/01 05:18:11;;;;;;;14.82;2.95;;;16.40;99.90;;;;;;3063055;19;20026;-66
2022/08/01 05:19:15;;;;;;;10.43;3.30;;;16.50;99.90;;;;;;3062933;19;20030;-66
2022/08/01 05:20:19;;;;;;;18.30;3.13;;;16.50;99.90;;;;;;3063291;19;20018;-66
2022/08/01 05:21:20;;;;;;;11.80;3.42;;;16.60;99.90;;;;;;3063257;19;20027;-66
2022/08/01 05:22:25;;;;;;;13.70;3.00;;;16.50;99.90;;;;;;3064477;19;20017;-66
2022/08/01 05:23:26;;;;;;;12.32;2.90;;;16.50;99.90;;;;;;3064246;19;20014;-66
2022/08/01 05:24:30;;;;;;;11.93;2.58;;;16.60;99.90;;;;;;3062652;19;20017;-66
2022/08/01 05:25:33;;;;;;;14.60;3.17;;;16.60;99.90;;;;;;3063708;19;20126;-66
2022/08/01 05:26:37;;;;;;;18.27;3.40;;;16.50;99.90;;;;;;3062793;19;20043;-66
2022/08/01 05:27:40;;;;;;;18.75;3.83;;;16.60;99.90;;;;;;3063688;19;20538;-66
2022/08/01 05:28:44;;;;;;;14.25;3.50;;;16.60;99.90;;;;;;3062777;19;20368;-66
2022/08/01 05:29:45;;;;;;;13.07;2.75;;;16.70;99.90;;;;;;3063493;19;20010;-66
2022/08/01 05:30:49;;;;;;;10.82;2.90;;;16.60;99.90;;;;;;3063763;19;20022;-66
2022/08/01 05:31:51;;;;;;;17.55;3.20;;;16.80;99.90;;;;;;3063105;19;20019;-66
2022/08/01 05:32:54;;;;;;;11.88;3.05;;;16.70;99.90;;;;;;3065210;19;20035;-66
2022/08/01 05:33:56;;;;;;;15.10;3.20;;;16.60;99.90;;;;;;3063166;19;20023;-66
2022/08/01 05:35:02;;;;;;;15.10;2.88;;;16.60;99.90;;;;;;3063203;19;20009;-66
2022/08/01 05:36:04;;;;;;;14.38;3.17;;;16.60;99.90;;;;;;3063371;19;20035;-66
2022/08/01 05:37:08;;;;;;;13.05;2.95;;;16.90;99.90;;;;;;3063160;19;20013;-66